ROMMA est une association bénévole à but non lucratif. Votre soutien est indispensable : ADHERER à ROMMA ou FAIRE un DON

Briord - (01, Ain)

Bugey (281 m)   Longitude: 05° 29' 13" E   Latitude: 45° 46' 37" N Station partenaire n°15
 

Détail journalier du     <<     >>

Température Precipitation Humidité Pression Vent Dir Rafale Dir. rafale Ensol.
Heure (°C) (mm) (%) (hPa) (km/h) (km/h) (min)
01:00 20.106110145NE18NNE0
02:00 17.207210151SE11NE0
03:00 15.3079101403SE0
04:00 14.7081101402SE0
05:00 13.9084101400---0
06:00 13.2086101500---0
07:00 13.1088101500---0
08:00 14.2089101600---0
09:00 19.3073101602SE40
10:00 20.907410161---8ONO60
11:00 22.906410162ONO10O60
12:00 25.105910164ONO18NO60
13:00 27.7044101510NO26ONO60
14:00 28.4045101512ONO27NNO60
15:00 29.0047101413NO29NNO60
16:00 29.2042101413NO27NNO60
17:00 28.9044101412NO27NNO60
18:00 28.9042101412NO26O60
19:00 28.4042101311NO26NO60
20:00 27.204510138NO21NO50
21:00 23.605710132ONO11NO0
22:00 19.907010141SSE8SSE0
23:00 20.306610141NE6SSE0
minuit 18.80721014010ESE0

Graphique du 03-08-2019

 

Serveur OMMA